Thunder radar more information blitzortung!


Löydät sääaseman tiedot myös:

European Weather Network

Finland Weather Exchange

Weather Underground

AWEKAS



Weather Underground säähistoriasivu

Päivittäin yhteenveto Helmikuu 12, 2017 Yksiköt:  Englantilaiset    Metriset   Molemmat
« Edellinen Päivä
Seuraava Päivä »
Päivittäin Viikoittain Kuukausittain Vuosittain Mukautettu
  Korkea: Matala: Keskiarvo:
Lämpötila: TemperatureC °F -3.5 °F -1.7 °F
Kastepiste: DewpointC °F -5.1 °F -3.2 °F
Kosteus: Humidity % 85 % 89 %
Tuulen nopeus: WindSpeedKMH mph 1.6 mph 5.1 mph
Tuulenpuuska: WindSpeedGustKMH mph - -
Tuuli:- - SSW
Ilmanpaine: PressurehPa in 1024.6 in -
Sade: 0.0 in    
Historical Graphs
 
 
Taulukkotiedot Helmikuu 12, 2017
Aika Lämpötila Kastepiste Ilmanpaine Tuuli Tuulen nopeus Tuulenpuuska Kosteus Sademäärä (tunneittain)
TemperatureC °F DewpointC °F PressurehPa in Calm     Humidity % HourlyPrecipMM in
00:00 -2.5 °F -3.6 °F 1037.1 in SW 3.2 mph 12.9 mph 92 % 0.0 in
00:15 -2.5 °F -3.8 °F 1037.1 in SSW 4.8 mph 14.5 mph 91 % 0.0 in
00:30 -2.5 °F -3.8 °F 1037.1 in SSW 3.2 mph 16.1 mph 91 % 0.0 in
00:45 -2.5 °F -3.8 °F 1037.1 in SW 4.8 mph 17.7 mph 91 % 0.0 in
01:00 -2.5 °F -3.6 °F 1037.1 in SSW 4.8 mph 19.3 mph 92 % 0.0 in
01:15 -2.5 °F -3.6 °F 1036.8 in SSW 3.2 mph 12.9 mph 92 % 0.0 in
01:30 -2.5 °F -3.8 °F 1037.1 in SW 3.2 mph 12.9 mph 91 % 0.0 in
01:45 -2.4 °F -3.6 °F 1036.8 in SW 4.8 mph 9.7 mph 92 % 0.0 in
02:00 -2.4 °F -3.7 °F 1036.8 in SSW 3.2 mph 16.1 mph 91 % 0.0 in
02:15 -2.4 °F -3.7 °F 1036.8 in SSW 4.8 mph 12.9 mph 91 % 0.0 in
02:45 -2.3 °F -3.6 °F 1036.8 in SSW 3.2 mph 12.9 mph 91 % 0.0 in
03:00 -2.3 °F -3.6 °F 1036.5 in SSW 3.2 mph 9.7 mph 91 % 0.0 in
03:15 -2.3 °F -3.6 °F 1036.5 in SSW 3.2 mph 8.0 mph 91 % 0.0 in
03:30 -2.3 °F -3.5 °F 1036.1 in South 1.6 mph 11.3 mph 91 % 0.0 in
03:45 -2.3 °F -3.5 °F 1036.1 in SSW 1.6 mph 9.7 mph 91 % 0.0 in
04:00 -2.3 °F -3.5 °F 1035.8 in SSW 1.6 mph 6.4 mph 91 % 0.0 in
04:15 -2.3 °F -3.5 °F 1035.4 in SSW 1.6 mph 8.0 mph 91 % 0.0 in
04:30 -2.3 °F -3.5 °F 1035.4 in SSW 1.6 mph 9.7 mph 91 % 0.0 in
04:45 -2.2 °F -3.5 °F 1036.1 in SSW 1.6 mph 9.7 mph 91 % 0.0 in
05:00 -2.2 °F -3.4 °F 1036.1 in SSW 1.6 mph 14.5 mph 91 % 0.0 in
05:15 -2.1 °F -3.4 °F 1035.8 in SSW 1.6 mph 6.4 mph 91 % 0.0 in
05:30 -2.1 °F -3.5 °F 1035.8 in SW 3.2 mph 9.7 mph 90 % 0.0 in
05:45 -2.0 °F -3.4 °F 1035.8 in SSW 3.2 mph 8.0 mph 90 % 0.0 in
06:00 -2.1 °F -3.7 °F 1035.4 in SSW 3.2 mph 14.5 mph 89 % 0.0 in
06:30 -2.4 °F -4.1 °F 1035.1 in SSW 3.2 mph 11.3 mph 88 % 0.0 in
06:45 -2.4 °F -4.0 °F 1035.1 in SW 1.6 mph 9.7 mph 89 % 0.0 in
07:00 -2.4 °F -4.0 °F 1035.1 in SSW 1.6 mph 9.7 mph 89 % 0.0 in
07:15 -2.5 °F -4.1 °F 1035.1 in SSW 3.2 mph 8.0 mph 89 % 0.0 in
07:30 -2.5 °F -4.1 °F 1035.1 in SSW 3.2 mph 14.5 mph 89 % 0.0 in
07:45 -2.6 °F -4.1 °F 1035.1 in SW 1.6 mph 9.7 mph 89 % 0.0 in
08:00 -2.7 °F -4.2 °F 1035.1 in SW 3.2 mph 8.0 mph 89 % 0.0 in
08:15 -2.7 °F -4.3 °F 1035.1 in SSW 1.6 mph 9.7 mph 89 % 0.0 in
08:30 -2.8 °F -4.3 °F 1035.1 in SW 4.8 mph 14.5 mph 89 % 0.0 in
08:45 -2.8 °F -4.4 °F 1035.1 in SSW 4.8 mph 17.7 mph 89 % 0.0 in
09:00 -2.9 °F -4.4 °F 1035.1 in SW 3.2 mph 12.9 mph 89 % 0.0 in
09:15 -3.0 °F -4.6 °F 1034.8 in SSW 4.8 mph 12.9 mph 89 % 0.0 in
09:30 -3.2 °F -4.7 °F 1034.8 in SSW 4.8 mph 14.5 mph 89 % 0.0 in
09:45 -3.3 °F -4.8 °F 1034.8 in SW 3.2 mph 9.7 mph 89 % 0.0 in
10:00 -3.4 °F -4.9 °F 1034.8 in SW 3.2 mph 9.7 mph 89 % 0.0 in
10:15 -3.5 °F -5.1 °F 1034.8 in SSW 1.6 mph 9.7 mph 89 % 0.0 in
10:30 -3.5 °F -5.1 °F 1034.8 in SW 1.6 mph 8.0 mph 89 % 0.0 in
10:45 -3.4 °F -4.8 °F 1034.8 in SSW 4.8 mph 11.3 mph 90 % 0.0 in
11:00 -3.2 °F -4.6 °F 1034.4 in SSW 4.8 mph 14.5 mph 90 % 0.0 in
11:15 -2.8 °F -4.4 °F 1034.4 in SSW 6.4 mph 14.5 mph 89 % 0.0 in
11:30 -2.6 °F -4.1 °F 1034.1 in SSW 4.8 mph 12.9 mph 89 % 0.0 in
11:45 -2.2 °F -3.9 °F 1034.4 in SSW 4.8 mph 12.9 mph 88 % 0.0 in
12:15 -1.7 °F -3.9 °F 1034.1 in SSW 4.8 mph 14.5 mph 85 % 0.0 in
12:30 -1.6 °F -3.7 °F 1033.7 in SSW 4.8 mph 11.3 mph 85 % 0.0 in
12:45 -1.4 °F -3.6 °F 1033.7 in SW 3.2 mph 11.3 mph 85 % 0.0 in
13:00 -1.5 °F -3.7 °F 1033.7 in SW 4.8 mph 19.3 mph 85 % 0.0 in
13:15 -1.5 °F -3.5 °F 1033.7 in SSW 4.8 mph 16.1 mph 86 % 0.0 in
13:30 -1.5 °F -3.5 °F 1033.4 in SSW 4.8 mph 11.3 mph 86 % 0.0 in
13:45 -1.5 °F -3.4 °F 1033.1 in SSW 6.4 mph 19.3 mph 87 % 0.0 in
14:00 -1.5 °F -3.2 °F 1032.7 in SSW 8.0 mph 19.3 mph 88 % 0.0 in
14:15 -1.4 °F -3.2 °F 1032.4 in SSW 6.4 mph 14.5 mph 88 % 0.0 in
14:30 -1.4 °F -3.2 °F 1032.7 in SW 6.4 mph 11.3 mph 88 % 0.0 in
15:00 -1.3 °F -3.1 °F 1032.1 in SSW 4.8 mph 16.1 mph 88 % 0.0 in
15:15 -1.3 °F -3.1 °F 1032.1 in SSW 6.4 mph 11.3 mph 88 % 0.0 in
15:30 -1.3 °F -2.9 °F 1032.1 in SSW 6.4 mph 14.5 mph 89 % 0.0 in
15:45 -1.3 °F -2.9 °F 1031.7 in SSW 6.4 mph 16.1 mph 89 % 0.0 in
16:00 -1.3 °F -2.9 °F 1032.1 in SSW 4.8 mph 16.1 mph 89 % 0.0 in
16:15 -1.3 °F -2.9 °F 1031.7 in SSW 6.4 mph 12.9 mph 89 % 0.0 in
16:30 -1.2 °F -2.7 °F 1031.7 in SSW 8.0 mph 17.7 mph 90 % 0.0 in
16:45 -1.2 °F -2.7 °F 1031.7 in SSW 4.8 mph 16.1 mph 90 % 0.0 in
17:00 -1.2 °F -2.5 °F 1031.4 in SSW 6.4 mph 16.1 mph 91 % 0.0 in
17:15 -1.2 °F -2.4 °F 1031.0 in SSW 6.4 mph 12.9 mph 91 % 0.0 in
17:30 -1.1 °F -2.2 °F 1030.7 in SSW 8.0 mph 17.7 mph 92 % 0.0 in
17:45 -1.1 °F -2.2 °F 1030.4 in SSW 9.7 mph 20.9 mph 92 % 0.0 in
18:00 -1.0 °F -2.1 °F 1030.4 in SSW 6.4 mph 14.5 mph 92 % 0.0 in
18:15 -0.9 °F -2.1 °F 1030.4 in SSW 6.4 mph 17.7 mph 92 % 0.0 in
18:30 -0.9 °F -2.0 °F 1030.0 in SW 6.4 mph 14.5 mph 92 % 0.0 in
18:45 -0.8 °F -2.0 °F 1029.7 in SSW 8.0 mph 19.3 mph 92 % 0.0 in
19:00 -0.8 °F -1.9 °F 1029.3 in SSW 8.0 mph 17.7 mph 92 % 0.0 in
19:15 -0.7 °F -1.9 °F 1029.0 in SSW 6.4 mph 16.1 mph 92 % 0.0 in
19:30 -0.7 °F -2.0 °F 1028.7 in SSW 8.0 mph 19.3 mph 91 % 0.0 in
19:45 -0.6 °F -2.0 °F 1028.7 in SSW 6.4 mph 17.7 mph 90 % 0.0 in
20:00 -0.4 °F -2.2 °F 1028.3 in SSW 8.0 mph 20.9 mph 88 % 0.0 in
20:15 -0.4 °F -2.3 °F 1028.0 in SSW 8.0 mph 17.7 mph 87 % 0.0 in
20:30 -0.3 °F -2.3 °F 1027.7 in SSW 8.0 mph 27.4 mph 86 % 0.0 in
20:45 -0.3 °F -2.3 °F 1027.3 in SSW 8.0 mph 20.9 mph 86 % 0.0 in
21:00 -0.3 °F -2.2 °F 1027.0 in SSW 6.4 mph 16.1 mph 87 % 0.0 in
21:15 -0.3 °F -2.2 °F 1027.0 in SW 8.0 mph 25.7 mph 87 % 0.0 in
21:30 -0.2 °F -1.8 °F 1026.6 in SSW 9.7 mph 22.5 mph 89 % 0.0 in
21:45 -0.2 °F -1.8 °F 1026.6 in SSW 9.7 mph 30.6 mph 89 % 0.0 in
22:00 -0.2 °F -1.8 °F 1026.0 in SSW 9.7 mph 24.1 mph 89 % 0.0 in
22:15 -0.2 °F -1.8 °F 1026.0 in SSW 9.7 mph 24.1 mph 89 % 0.0 in
22:30 -0.1 °F -1.6 °F 1025.6 in SSW 8.0 mph 19.3 mph 90 % 0.0 in
22:45 0.0 °F -1.3 °F 1025.6 in SSW 8.0 mph 19.3 mph 91 % 0.0 in
23:00 0.1 °F -1.2 °F 1025.3 in SSW 8.0 mph 22.5 mph 91 % 0.0 in
23:15 0.2 °F -1.1 °F 1024.9 in SSW 8.0 mph 25.7 mph 91 % 0.0 in
23:30 0.2 °F -1.1 °F 1024.6 in SSW 8.0 mph 20.9 mph 91 % 0.0 in
23:45 0.3 °F -1.0 °F 1024.6 in SSW 8.0 mph 17.7 mph 91 % 0.0 in
Esan sääasema
Terveisin Weather Underground - 2.75 mb

Alkuperäinen skripti  Jim McMurry - jmcmurry@mwt.net Sovitettu myös templatelle  Wim van der Kuil - Leuven-Template.eu

Laitteet joita käytämme:

Sääasema
Davis VP2

Sääasemaohjelma
Cumulus

Sääaseman tietokone
Asus EeePC

Palveluntarjoaja
Suncomet

Davis VP2

Cumulus

Asus EeePC

Suncomet